createdAt,value
2022-10-17T00:00:34.735Z,99900.03
2022-10-17T00:03:01.453Z,99898.72
2022-10-17T00:05:28.237Z,99885.84
2022-10-17T00:07:55.174Z,99882.38
2022-10-17T00:10:22.971Z,99872.03
2022-10-17T00:12:51.758Z,99883.09
2022-10-17T00:15:20.331Z,99883.41
2022-10-17T00:17:46.998Z,99871.19
2022-10-17T00:20:14.245Z,99869.53
2022-10-17T00:22:40.985Z,99857.31
2022-10-17T00:25:08.138Z,99863.69
2022-10-17T00:27:36.932Z,99865.81
2022-10-17T00:30:04.946Z,99858.00
2022-10-17T00:32:31.807Z,99851.78
2022-10-17T00:34:58.832Z,99835.47
2022-10-17T00:37:25.559Z,99828.44
2022-10-17T00:39:52.381Z,99828.78
2022-10-17T00:42:19.010Z,99827.09
2022-10-17T00:44:48.486Z,99818.78
2022-10-17T00:47:21.918Z,99800.56
2022-10-17T00:49:48.854Z,99794.69
2022-10-17T00:52:48.733Z,99791.22
2022-10-17T00:55:24.031Z,99784.69
2022-10-17T00:57:52.467Z,99790.72
2022-10-17T01:00:20.001Z,99800.06
2022-10-17T01:02:47.339Z,99799.41
2022-10-17T01:05:15.968Z,99777.66
2022-10-17T01:07:44.578Z,99772.31
2022-10-17T01:10:13.132Z,99766.28
2022-10-17T01:12:43.350Z,99766.31
2022-10-17T01:15:34.762Z,99767.50
2022-10-17T01:18:12.168Z,99776.69
2022-10-17T01:21:00.696Z,99768.47
2022-10-17T01:23:53.428Z,99767.50
2022-10-17T01:26:55.161Z,99769.50
2022-10-17T01:29:59.789Z,99770.63
2022-10-17T01:32:37.356Z,99766.09
2022-10-17T01:35:15.455Z,99770.97
2022-10-17T01:38:10.642Z,99748.19
2022-10-17T01:40:49.061Z,99721.22
2022-10-17T01:43:18.818Z,99709.84
2022-10-17T01:45:45.437Z,99700.44
2022-10-17T01:48:17.604Z,99690.94
2022-10-17T01:50:57.994Z,99671.81
2022-10-17T01:53:32.550Z,99672.66
2022-10-17T01:56:02.656Z,99669.44
2022-10-17T01:58:38.571Z,99685.31
2022-10-17T02:01:09.347Z,99665.09
2022-10-17T02:03:36.401Z,99662.06
2022-10-17T02:06:05.995Z,99668.06
2022-10-17T02:08:46.132Z,99629.06
2022-10-17T02:11:19.220Z,99637.25
2022-10-17T02:14:14.385Z,99628.56
2022-10-17T02:17:16.541Z,99609.06
2022-10-17T02:19:54.520Z,99593.09
2022-10-17T02:22:41.905Z,99596.47
2022-10-17T02:25:08.543Z,99606.06
2022-10-17T02:28:00.768Z,99610.91
2022-10-17T02:30:30.851Z,99613.44
2022-10-17T02:33:09.325Z,99584.03
2022-10-17T02:35:40.406Z,99577.03
2022-10-17T02:38:09.950Z,99586.41
2022-10-17T02:40:37.970Z,99586.41
2022-10-17T02:43:05.027Z,99597.81
2022-10-17T02:45:36.057Z,99585.44
2022-10-17T02:48:48.357Z,99585.44
2022-10-17T02:51:40.850Z,99580.44
2022-10-17T02:54:35.813Z,99575.94
2022-10-17T02:57:12.186Z,99575.78
2022-10-17T02:59:41.548Z,99576.44
2022-10-17T03:02:08.376Z,99578.78
2022-10-17T03:04:35.089Z,99579.63
2022-10-17T03:07:01.751Z,99569.28
2022-10-17T03:09:28.779Z,99574.63
2022-10-17T03:11:55.445Z,99572.59
2022-10-17T03:14:22.174Z,99571.63
2022-10-17T03:16:48.903Z,99569.59
2022-10-17T03:19:17.623Z,99559.06
2022-10-17T03:21:44.309Z,99567.75
2022-10-17T03:24:12.322Z,99569.41
2022-10-17T03:26:39.174Z,99584.13
2022-10-17T03:29:07.458Z,99573.09
2022-10-17T03:31:35.957Z,99552.03
2022-10-17T03:34:04.074Z,99529.16
2022-10-17T03:36:31.043Z,99534.16
2022-10-17T03:38:58.007Z,99525.78
2022-10-17T03:41:24.743Z,99488.88
2022-10-17T03:43:54.508Z,99457.44
2022-10-17T03:46:22.274Z,99441.41
2022-10-17T03:48:48.992Z,99436.19
2022-10-17T03:51:16.520Z,99425.66
2022-10-17T03:53:48.941Z,99418.94
2022-10-17T03:56:19.028Z,99399.91
2022-10-17T03:58:53.993Z,99416.59
2022-10-17T04:01:22.078Z,99409.16
2022-10-17T04:03:53.809Z,99419.16
2022-10-17T04:06:21.888Z,99401.41
2022-10-17T04:08:49.008Z,99401.22
2022-10-17T04:11:22.126Z,99388.19
2022-10-17T04:13:54.714Z,99389.78
2022-10-17T04:16:21.677Z,99385.97
2022-10-17T04:18:59.775Z,99370.75
2022-10-17T04:21:30.485Z,99368.56
2022-10-17T04:24:01.809Z,99368.91
2022-10-17T04:26:45.570Z,99354.34
2022-10-17T04:29:13.567Z,99348.50
2022-10-17T04:31:42.612Z,99341.72
2022-10-17T04:34:28.746Z,99329.88
2022-10-17T04:36:55.539Z,99332.03
2022-10-17T04:39:22.339Z,99339.41
2022-10-17T04:41:49.510Z,99324.66
2022-10-17T04:44:16.161Z,99330.03
2022-10-17T04:46:49.143Z,99332.81
2022-10-17T04:49:15.972Z,99314.34
2022-10-17T04:51:44.787Z,99313.13
2022-10-17T04:54:21.250Z,99313.34
2022-10-17T04:56:53.758Z,99313.88
2022-10-17T04:59:20.616Z,99314.84
2022-10-17T05:01:53.200Z,99315.28
2022-10-17T05:04:23.929Z,99314.28
2022-10-17T05:06:53.000Z,99317.22
2022-10-17T05:09:41.698Z,99313.16
2022-10-17T05:12:10.314Z,99312.31
2022-10-17T05:14:40.045Z,99307.69
2022-10-17T05:17:06.738Z,99320.72
2022-10-17T05:19:34.714Z,99316.00
2022-10-17T05:22:01.443Z,99315.63
2022-10-17T05:24:28.909Z,99315.25
2022-10-17T05:26:55.568Z,99316.47
2022-10-17T05:29:22.665Z,99321.34
2022-10-17T05:31:57.612Z,99317.22
2022-10-17T05:34:25.118Z,99320.09
2022-10-17T05:36:51.954Z,99317.59
2022-10-17T05:39:23.330Z,99319.53
2022-10-17T05:41:52.469Z,99330.69
2022-10-17T05:44:19.232Z,99334.50
2022-10-17T05:46:52.478Z,99330.44
2022-10-17T05:49:32.546Z,99330.97
2022-10-17T05:52:00.950Z,99325.88
2022-10-17T05:54:31.823Z,99328.13
2022-10-17T05:56:58.719Z,99331.78
2022-10-17T05:59:29.416Z,99320.91
2022-10-17T06:02:06.962Z,99332.63
2022-10-17T06:04:34.556Z,99325.06
2022-10-17T06:07:02.527Z,99320.53
2022-10-17T06:09:31.224Z,99323.31
2022-10-17T06:11:58.081Z,99328.00
2022-10-17T06:14:24.802Z,99323.00
2022-10-17T06:16:56.272Z,99319.84
2022-10-17T06:19:23.097Z,99321.06
2022-10-17T06:21:49.839Z,99323.94
2022-10-17T06:24:21.029Z,99323.28
2022-10-17T06:26:49.896Z,99325.31
2022-10-17T06:29:17.211Z,99326.69
2022-10-17T06:31:47.958Z,99335.34
2022-10-17T06:34:15.280Z,99343.09
2022-10-17T06:36:41.969Z,99337.72
2022-10-17T06:39:09.810Z,99343.25
2022-10-17T06:41:41.729Z,99357.84
2022-10-17T06:44:11.292Z,99352.19
2022-10-17T06:46:39.152Z,99353.53
2022-10-17T06:49:08.149Z,99344.84
2022-10-17T06:51:42.601Z,99354.53
2022-10-17T06:54:12.070Z,99355.72
2022-10-17T06:56:47.850Z,99356.63
2022-10-17T06:59:50.111Z,99367.88
2022-10-17T07:02:23.679Z,99382.63
2022-10-17T07:04:52.718Z,99384.81
2022-10-17T07:07:19.537Z,99399.00
2022-10-17T07:09:46.331Z,99381.97
2022-10-17T07:12:15.088Z,99397.16
2022-10-17T07:14:47.244Z,99381.97
2022-10-17T07:17:14.172Z,99384.44
2022-10-17T07:19:43.461Z,99384.44
2022-10-17T07:22:11.594Z,99390.63
2022-10-17T07:24:41.047Z,99386.22
2022-10-17T07:27:26.358Z,99391.09
2022-10-17T07:29:53.288Z,99390.06
2022-10-17T07:32:46.351Z,99385.78
2022-10-17T07:35:14.875Z,99390.28
2022-10-17T07:37:41.818Z,99407.03
2022-10-17T07:40:09.327Z,99397.88
2022-10-17T07:45:10.397Z,99397.84
2022-10-17T07:47:37.450Z,99402.28
2022-10-17T07:50:07.408Z,99404.84
2022-10-17T07:52:34.465Z,99407.53
2022-10-17T07:55:01.158Z,99396.94
2022-10-17T07:57:27.963Z,99400.00
2022-10-17T07:59:54.784Z,99402.25
2022-10-17T08:02:24.296Z,99409.88
2022-10-17T08:04:54.350Z,99417.56
2022-10-17T08:07:25.357Z,99409.97
2022-10-17T08:09:53.716Z,99427.47
2022-10-17T08:12:20.586Z,99432.63
2022-10-17T08:14:48.171Z,99423.06
2022-10-17T08:17:15.000Z,99419.63
2022-10-17T08:19:41.732Z,99419.78
2022-10-17T08:22:08.848Z,99422.13
2022-10-17T08:24:35.544Z,99423.59
2022-10-17T08:27:02.885Z,99420.28
2022-10-17T08:29:29.693Z,99421.31
2022-10-17T08:32:00.817Z,99425.84
2022-10-17T08:34:28.342Z,99427.75
2022-10-17T08:36:55.178Z,99424.41
2022-10-17T08:39:21.950Z,99418.09
2022-10-17T08:41:51.550Z,99425.00
2022-10-17T08:44:33.039Z,99427.22
2022-10-17T08:47:01.341Z,99426.59
2022-10-17T08:49:38.402Z,99433.00
2022-10-17T08:52:21.941Z,99430.16
2022-10-17T08:54:49.174Z,99430.78
2022-10-17T08:57:17.508Z,99424.97
2022-10-17T08:59:46.141Z,99426.59
2022-10-17T09:02:32.465Z,99423.25
2022-10-17T09:05:08.412Z,99418.69
2022-10-17T09:07:53.499Z,99414.81
2022-10-17T09:10:29.282Z,99421.78
2022-10-17T09:13:10.364Z,99426.81
2022-10-17T09:15:43.067Z,99425.25
2022-10-17T09:18:12.624Z,99419.84
2022-10-17T09:20:47.105Z,99427.03
2022-10-17T09:23:48.892Z,99430.22
2022-10-17T09:26:15.749Z,99427.88
2022-10-17T09:28:43.589Z,99438.00
2022-10-17T09:31:16.248Z,99435.59
2022-10-17T09:33:54.198Z,99439.28
2022-10-17T09:36:34.343Z,99435.69
2022-10-17T09:39:04.452Z,99433.16
2022-10-17T09:41:47.170Z,99445.94
2022-10-17T09:44:18.307Z,99448.97
2022-10-17T09:47:23.456Z,99454.22
2022-10-17T09:49:51.206Z,99445.00
2022-10-17T09:52:22.421Z,99455.03
2022-10-17T09:54:52.642Z,99450.09
2022-10-17T09:57:21.337Z,99446.06
2022-10-17T09:59:56.951Z,99452.09
2022-10-17T10:02:25.756Z,99458.81
2022-10-17T10:05:16.130Z,99461.97
2022-10-17T10:07:44.855Z,99463.91
2022-10-17T10:10:27.792Z,99456.81
2022-10-17T10:13:25.995Z,99461.19
2022-10-17T10:15:53.122Z,99454.50
2022-10-17T10:18:32.836Z,99458.44
2022-10-17T10:21:20.074Z,99449.91
2022-10-17T10:24:09.243Z,99461.81
2022-10-17T10:26:42.570Z,99450.44
2022-10-17T10:29:23.702Z,99464.50
2022-10-17T10:31:53.460Z,99460.56
2022-10-17T10:34:22.270Z,99462.19
2022-10-17T10:36:51.162Z,99466.97
2022-10-17T10:39:34.871Z,99471.53
2022-10-17T10:42:06.079Z,99454.44
2022-10-17T10:44:34.412Z,99462.44
2022-10-17T10:47:29.014Z,99455.34
2022-10-17T10:50:17.383Z,99442.22
2022-10-17T10:52:52.413Z,99436.03
2022-10-17T10:55:34.874Z,99450.72
2022-10-17T10:58:07.098Z,99462.06
2022-10-17T11:00:37.832Z,99465.34
2022-10-17T11:03:32.462Z,99475.13
2022-10-17T11:06:05.418Z,99482.47
2022-10-17T11:08:54.366Z,99483.00
2022-10-17T11:11:29.606Z,99484.28
2022-10-17T11:14:02.739Z,99485.75
2022-10-17T11:16:34.105Z,99488.22
2022-10-17T11:19:04.745Z,99483.31
2022-10-17T11:21:39.052Z,99490.84
2022-10-17T11:24:11.548Z,99497.16
2022-10-17T11:27:18.202Z,99500.97
2022-10-17T11:29:45.941Z,99500.72
2022-10-17T11:32:24.790Z,99507.69
2022-10-17T11:35:26.567Z,99502.94
2022-10-17T11:38:08.354Z,99495.00
2022-10-17T11:40:38.458Z,99502.06
2022-10-17T11:43:28.279Z,99506.53
2022-10-17T11:46:15.980Z,99510.38
2022-10-17T11:48:51.269Z,99511.22
2022-10-17T11:54:15.646Z,99520.97
2022-10-17T11:56:47.461Z,99531.19
2022-10-17T11:59:23.329Z,99520.72
2022-10-17T12:01:59.473Z,99525.38
2022-10-17T12:04:38.313Z,99524.47
2022-10-17T12:07:18.723Z,99525.50
2022-10-17T12:10:22.501Z,99529.59
2022-10-17T12:12:49.526Z,99529.75
2022-10-17T12:15:25.365Z,99534.88
2022-10-17T12:18:04.140Z,99534.88
2022-10-17T12:20:32.158Z,99537.63
2022-10-17T12:23:17.916Z,99542.06
2022-10-17T12:26:05.618Z,99537.44
2022-10-17T12:28:39.316Z,99528.75
2022-10-17T12:31:29.672Z,99519.00
2022-10-17T12:34:05.614Z,99522.81
2022-10-17T12:36:32.341Z,99509.88
2022-10-17T12:39:01.774Z,99519.31
2022-10-17T12:41:40.841Z,99510.63
2022-10-17T12:44:13.785Z,99508.84
2022-10-17T12:47:06.154Z,99536.69
2022-10-17T12:49:53.117Z,99537.78
2022-10-17T12:52:25.427Z,99524.69
2022-10-17T12:55:12.170Z,99531.53
2022-10-17T12:58:03.217Z,99531.03
2022-10-17T13:00:43.837Z,99531.97
2022-10-17T13:03:22.075Z,99529.09
2022-10-17T13:05:50.985Z,99528.44
2022-10-17T13:08:22.537Z,99523.09
2022-10-17T13:10:52.686Z,99528.53
2022-10-17T13:13:35.333Z,99530.81
2022-10-17T13:16:02.084Z,99528.22
2022-10-17T13:18:30.005Z,99527.50
2022-10-17T13:21:03.920Z,99521.72
2022-10-17T13:23:34.417Z,99520.97
2022-10-17T13:26:28.333Z,99507.50
2022-10-17T13:29:11.380Z,99511.66
2022-10-17T13:31:40.719Z,99518.44
2022-10-17T13:34:17.218Z,99527.47
2022-10-17T13:36:48.746Z,99529.75
2022-10-17T13:39:23.190Z,99532.25
2022-10-17T13:41:59.652Z,99535.16
2022-10-17T13:44:32.995Z,99550.47
2022-10-17T13:46:59.984Z,99554.84
2022-10-17T13:49:36.081Z,99549.50
2022-10-17T13:52:05.266Z,99547.88
2022-10-17T13:54:42.639Z,99558.72
2022-10-17T13:57:25.714Z,99550.97
2022-10-17T13:59:59.112Z,99549.03
2022-10-17T14:02:30.897Z,99558.19
2022-10-17T14:05:19.543Z,99548.94
2022-10-17T14:10:50.473Z,99557.81
2022-10-17T14:13:26.930Z,99553.44
2022-10-17T14:16:04.293Z,99554.38
2022-10-17T14:18:36.548Z,99556.13
2022-10-17T14:21:37.212Z,99575.13
2022-10-17T14:23:53.481Z,99574.09
2022-10-17T14:26:24.239Z,99589.19
2022-10-17T14:29:07.372Z,99579.47
2022-10-17T14:31:36.255Z,99588.72
2022-10-17T14:34:05.082Z,99579.47
2022-10-17T14:36:42.877Z,99587.06
2022-10-17T14:39:20.885Z,99589.63
2022-10-17T14:41:48.475Z,99589.19
2022-10-17T14:44:34.638Z,99590.47
2022-10-17T14:47:38.100Z,99589.53
2022-10-17T14:50:21.278Z,99591.31
2022-10-17T14:53:03.253Z,99577.25
2022-10-17T14:55:31.978Z,99574.94
2022-10-17T14:57:59.125Z,99582.53
2022-10-17T15:00:26.574Z,99594.59
2022-10-17T15:02:55.274Z,99605.31
2022-10-17T15:05:23.505Z,99603.72
2022-10-17T15:07:50.317Z,99612.28
2022-10-17T15:10:43.180Z,99615.56
2022-10-17T15:13:27.963Z,99613.47
2022-10-17T15:15:55.688Z,99620.56
2022-10-17T15:18:22.449Z,99620.56
2022-10-17T15:20:55.323Z,99624.63
2022-10-17T15:23:31.459Z,99628.28
2022-10-17T15:25:58.133Z,99626.94
2022-10-17T15:28:24.866Z,99626.84
2022-10-17T15:30:51.586Z,99631.63
2022-10-17T15:33:18.286Z,99633.63
2022-10-17T15:35:45.091Z,99631.13
2022-10-17T15:38:17.959Z,99633.91
2022-10-17T15:40:45.967Z,99634.81
2022-10-17T15:43:15.046Z,99647.84
2022-10-17T15:45:44.108Z,99636.09
2022-10-17T15:48:28.348Z,99648.34
2022-10-17T15:50:55.259Z,99658.97
2022-10-17T15:53:22.461Z,99649.63
2022-10-17T15:55:51.016Z,99657.19
2022-10-17T15:58:18.890Z,99668.63
2022-10-17T16:00:46.532Z,99666.28
2022-10-17T16:03:14.294Z,99668.16
2022-10-17T16:05:41.138Z,99665.53
2022-10-17T16:08:07.766Z,99671.03
2022-10-17T16:10:37.933Z,99673.94
2022-10-17T16:13:04.743Z,99679.28
2022-10-17T16:15:31.771Z,99674.09
2022-10-17T16:18:01.640Z,99683.34
2022-10-17T16:20:32.041Z,99683.63
2022-10-17T16:23:02.322Z,99702.38
2022-10-17T16:25:30.639Z,99695.00
2022-10-17T16:27:58.938Z,99696.84
2022-10-17T16:30:30.188Z,99698.16
2022-10-17T16:32:57.175Z,99705.56
2022-10-17T16:35:33.210Z,99694.13
2022-10-17T16:38:03.913Z,99704.84
2022-10-17T16:40:30.589Z,99709.56
2022-10-17T16:42:57.273Z,99710.38
2022-10-17T16:45:23.951Z,99698.16
2022-10-17T16:47:50.795Z,99716.03
2022-10-17T16:50:17.956Z,99717.72
2022-10-17T16:52:44.648Z,99714.66
2022-10-17T16:55:11.363Z,99723.06
2022-10-17T16:57:38.128Z,99735.94
2022-10-17T17:00:06.926Z,99741.78
2022-10-17T17:02:34.002Z,99746.50
2022-10-17T17:05:00.966Z,99752.69
2022-10-17T17:07:29.481Z,99767.59
2022-10-17T17:09:56.621Z,99769.59
2022-10-17T17:12:23.348Z,99765.59
2022-10-17T17:17:37.056Z,99762.13
2022-10-17T17:20:20.558Z,99759.31
2022-10-17T17:22:47.294Z,99773.41
2022-10-17T17:25:14.201Z,99777.28
2022-10-17T17:27:41.136Z,99778.50
2022-10-17T17:30:08.228Z,99788.25
2022-10-17T17:32:34.889Z,99783.22
2022-10-17T17:35:01.741Z,99789.63
2022-10-17T17:37:28.869Z,99798.34
2022-10-17T17:39:55.738Z,99792.47
2022-10-17T17:42:22.528Z,99803.72
2022-10-17T17:44:49.985Z,99804.06
2022-10-17T17:47:16.660Z,99800.22
2022-10-17T17:49:43.343Z,99813.75
2022-10-17T17:52:10.065Z,99819.94
2022-10-17T17:54:40.052Z,99818.97
2022-10-17T17:57:07.875Z,99832.00
2022-10-17T17:59:34.682Z,99831.19
2022-10-17T18:02:02.933Z,99844.75
2022-10-17T18:04:29.745Z,99845.44
2022-10-17T18:06:56.489Z,99859.81
2022-10-17T18:09:23.953Z,99864.84
2022-10-17T18:11:50.684Z,99871.19
2022-10-17T18:14:19.161Z,99885.75
2022-10-17T18:16:45.895Z,99883.59
2022-10-17T18:19:12.932Z,99894.44
2022-10-17T18:21:39.627Z,99910.19
2022-10-17T18:24:07.283Z,99914.19
2022-10-17T18:26:34.603Z,99915.53
2022-10-17T18:29:01.796Z,99928.38
2022-10-17T18:31:32.055Z,99927.84
2022-10-17T18:34:02.153Z,99928.53
2022-10-17T18:36:30.550Z,99944.91
2022-10-17T18:38:58.898Z,99951.06
2022-10-17T18:41:26.750Z,99958.28
2022-10-17T18:43:54.994Z,99967.81
2022-10-17T18:46:24.333Z,99977.72
2022-10-17T18:48:51.428Z,99982.44
2022-10-17T18:51:21.410Z,99997.84
2022-10-17T18:53:50.600Z,100005.69
2022-10-17T18:56:18.350Z,100021.75
2022-10-17T18:58:45.690Z,100027.97
2022-10-17T19:01:18.200Z,100038.69
2022-10-17T19:03:46.676Z,100036.03
2022-10-17T19:06:15.364Z,100048.25
2022-10-17T19:08:43.263Z,100070.69
2022-10-17T19:11:15.574Z,100081.06
2022-10-17T19:13:43.188Z,100097.63
2022-10-17T19:16:15.217Z,100105.34
2022-10-17T19:18:41.968Z,100108.97
2022-10-17T19:21:10.162Z,100123.72
2022-10-17T19:23:38.147Z,100129.72
2022-10-17T19:26:06.992Z,100132.06
2022-10-17T19:28:34.673Z,100156.16
2022-10-17T19:31:01.574Z,100165.38
2022-10-17T19:36:05.366Z,100158.72
2022-10-17T19:38:32.182Z,100176.56
2022-10-17T19:43:26.837Z,100192.44
2022-10-17T19:45:58.518Z,100197.97
2022-10-17T19:48:26.260Z,100199.38
2022-10-17T19:50:53.939Z,100205.97
2022-10-17T19:53:23.319Z,100219.53
2022-10-17T19:55:51.134Z,100221.81
2022-10-17T19:58:17.792Z,100220.38
2022-10-17T20:00:53.082Z,100223.88
2022-10-17T20:03:19.866Z,100252.75
2022-10-17T20:05:47.233Z,100264.06
2022-10-17T20:08:15.032Z,100272.09
2022-10-17T20:10:42.148Z,100272.78
2022-10-17T20:13:09.271Z,100284.31
2022-10-17T20:15:36.907Z,100294.50
2022-10-17T20:18:05.073Z,100302.88
2022-10-17T20:20:33.838Z,100313.91
2022-10-17T20:23:00.595Z,100322.75
2022-10-17T20:25:27.311Z,100326.94
2022-10-17T20:27:54.028Z,100334.50
2022-10-17T20:30:20.670Z,100341.72
2022-10-17T20:32:47.444Z,100349.03
2022-10-17T20:35:14.130Z,100356.78
2022-10-17T20:37:42.667Z,100359.75
2022-10-17T20:40:33.469Z,100368.69
2022-10-17T20:42:57.107Z,100374.72
2022-10-17T20:45:37.445Z,100387.19
2022-10-17T20:48:15.259Z,100405.81
2022-10-17T20:50:43.417Z,100417.53
2022-10-17T20:53:35.367Z,100428.44
2022-10-17T20:56:03.111Z,100428.00
2022-10-17T20:58:29.978Z,100432.38
2022-10-17T21:00:56.687Z,100443.59
2022-10-17T21:03:24.324Z,100467.16
2022-10-17T21:05:50.971Z,100468.38
2022-10-17T21:08:17.741Z,100479.81
2022-10-17T21:10:44.372Z,100478.91
2022-10-17T21:13:11.046Z,100479.38
2022-10-17T21:15:37.752Z,100485.81
2022-10-17T21:18:04.448Z,100479.13
2022-10-17T21:20:31.167Z,100479.97
2022-10-17T21:22:57.977Z,100478.19
2022-10-17T21:25:24.670Z,100490.19
2022-10-17T21:27:52.801Z,100508.44
2022-10-17T21:30:21.009Z,100519.44
2022-10-17T21:32:51.670Z,100541.31
2022-10-17T21:35:18.817Z,100557.75
2022-10-17T21:37:45.506Z,100553.56
2022-10-17T21:40:12.784Z,100561.59
2022-10-17T21:42:39.495Z,100565.78
2022-10-17T21:45:15.254Z,100591.31
2022-10-17T21:48:11.272Z,100591.44
2022-10-17T21:50:33.662Z,100600.03
2022-10-17T21:53:00.308Z,100607.22
2022-10-17T21:55:27.030Z,100609.44
2022-10-17T21:57:53.646Z,100606.91
2022-10-17T22:00:20.459Z,100617.78
2022-10-17T22:02:47.219Z,100623.13
2022-10-17T22:05:14.066Z,100626.88
2022-10-17T22:07:40.772Z,100636.22
2022-10-17T22:10:07.869Z,100647.31
2022-10-17T22:12:34.534Z,100640.00
2022-10-17T22:15:01.303Z,100645.63
2022-10-17T22:17:28.278Z,100653.94
2022-10-17T22:19:55.282Z,100653.50
2022-10-17T22:22:22.256Z,100664.47
2022-10-17T22:24:48.879Z,100670.91
2022-10-17T22:27:15.620Z,100682.16
2022-10-17T22:29:42.345Z,100692.28
2022-10-17T22:32:09.038Z,100692.56
2022-10-17T22:34:35.871Z,100697.53
2022-10-17T22:37:02.607Z,100711.44
2022-10-17T22:39:29.319Z,100716.06
2022-10-17T22:41:55.943Z,100725.75
2022-10-17T22:44:22.654Z,100717.31
2022-10-17T22:46:49.423Z,100729.97
2022-10-17T22:49:16.286Z,100730.81
2022-10-17T22:51:42.987Z,100732.47
2022-10-17T22:56:53.638Z,100745.41
2022-10-17T22:59:20.384Z,100741.03
2022-10-17T23:01:47.277Z,100752.72
2022-10-17T23:04:13.936Z,100743.00
2022-10-17T23:06:40.646Z,100753.97
2022-10-17T23:09:07.292Z,100759.47
2022-10-17T23:11:33.961Z,100763.66
2022-10-17T23:14:00.743Z,100764.22
2022-10-17T23:16:27.401Z,100771.25
2022-10-17T23:18:54.125Z,100772.94
2022-10-17T23:21:20.770Z,100771.28
2022-10-17T23:23:47.444Z,100778.59
2022-10-17T23:26:14.505Z,100777.75
2022-10-17T23:28:42.493Z,100778.88
2022-10-17T23:31:16.737Z,100775.94
2022-10-17T23:33:45.166Z,100764.53
2022-10-17T23:36:13.931Z,100784.78
2022-10-17T23:38:42.441Z,100801.34
2022-10-17T23:41:09.387Z,100797.56
2022-10-17T23:43:36.377Z,100813.41
2022-10-17T23:46:04.230Z,100817.38
2022-10-17T23:48:31.083Z,100814.69
2022-10-17T23:50:58.046Z,100822.16
2022-10-17T23:53:25.106Z,100826.63
2022-10-17T23:55:52.490Z,100843.91
2022-10-17T23:58:19.150Z,100855.03
